Time;durP1;ratioP1;P1;durP2;ratioP2;P2;SDS_P1;SDS_P2;PMS_P1;PMS_P2;Temp;Humidity;BMP_temperature;BMP_pressure;BME280_temperature;BME280_humidity;BME280_pressure;Samples;Min_cycle;Max_cycle;Signal;HPM_P1;HPM_P2
2023/04/03 00:01:38;;;;;;;7.20;4.67;;;;;;;;;;5004095;28;20191;-54
2023/04/03 00:04:05;;;;;;;4.17;3.73;;;;;;;;;;5003467;28;20186;-54
2023/04/03 00:06:31;;;;;;;4.03;3.63;;;;;;;;;;5008356;28;20187;-54
2023/04/03 00:08:57;;;;;;;6.30;4.10;;;;;;;;;;5011016;28;20190;-54
2023/04/03 00:11:23;;;;;;;4.63;3.50;;;;;;;;;;5010660;28;20224;-54
2023/04/03 00:13:49;;;;;;;3.97;3.30;;;;;;;;;;5004458;28;20741;-54
2023/04/03 00:16:15;;;;;;;3.83;3.30;;;;;;;;;;5007825;28;20312;-54
2023/04/03 00:18:42;;;;;;;3.43;3.13;;;;;;;;;;5008496;28;20666;-54
2023/04/03 00:21:08;;;;;;;4.30;3.40;;;;;;;;;;5004437;28;20759;-54
2023/04/03 00:23:34;;;;;;;5.10;3.80;;;;;;;;;;5004897;28;20386;-54
2023/04/03 00:26:00;;;;;;;5.97;3.60;;;;;;;;;;5007011;28;20556;-54
2023/04/03 00:28:27;;;;;;;4.97;3.53;;;;;;;;;;5009661;28;20285;-54
2023/04/03 00:30:53;;;;;;;3.40;3.10;;;;;;;;;;5010055;28;20210;-55
2023/04/03 00:33:24;;;;;;;4.33;3.67;;;;;;;;;;5012850;28;20174;-54
2023/04/03 00:35:50;;;;;;;5.13;3.60;;;;;;;;;;5005516;28;20174;-54
2023/04/03 00:38:17;;;;;;;2.93;2.63;;;;;;;;;;5018240;28;20197;-55
2023/04/03 00:40:44;;;;;;;3.63;3.33;;;;;;;;;;5014602;28;20181;-54
2023/04/03 00:43:15;;;;;;;4.10;3.20;;;;;;;;;;5001919;28;20175;-54
2023/04/03 00:45:42;;;;;;;5.90;3.53;;;;;;;;;;5011058;28;20696;-54
2023/04/03 00:48:12;;;;;;;7.77;3.40;;;;;;;;;;5009786;28;20206;-54
2023/04/03 00:50:40;;;;;;;3.40;3.10;;;;;;;;;;5003453;28;20229;-54
2023/04/03 00:53:06;;;;;;;3.50;3.00;;;;;;;;;;5009114;28;20182;-54
2023/04/03 00:55:34;;;;;;;3.57;3.27;;;;;;;;;;5012892;28;20173;-54
2023/04/03 00:58:01;;;;;;;3.67;3.27;;;;;;;;;;5003117;28;20630;-54
2023/04/03 01:00:27;;;;;;;4.73;3.10;;;;;;;;;;5005723;28;20626;-54
2023/04/03 01:02:54;;;;;;;3.33;3.03;;;;;;;;;;5004730;28;20190;-54
2023/04/03 01:05:21;;;;;;;3.30;3.00;;;;;;;;;;5009422;28;20658;-55
2023/04/03 01:07:48;;;;;;;4.33;3.37;;;;;;;;;;5006926;28;20221;-54
2023/04/03 01:10:15;;;;;;;3.73;3.23;;;;;;;;;;5011784;28;20205;-54
2023/04/03 01:12:42;;;;;;;4.47;3.13;;;;;;;;;;5001236;28;20613;-54
2023/04/03 01:15:10;;;;;;;4.00;3.23;;;;;;;;;;5002404;28;20179;-54
2023/04/03 01:17:37;;;;;;;3.43;2.77;;;;;;;;;;5001249;28;20468;-54
2023/04/03 01:20:12;;;;;;;4.23;3.00;;;;;;;;;;5012450;28;20183;-54
2023/04/03 01:22:45;;;;;;;4.20;3.10;;;;;;;;;;5002026;28;20213;-54
2023/04/03 01:25:11;;;;;;;4.73;3.53;;;;;;;;;;5004192;28;20274;-54
2023/04/03 01:27:37;;;;;;;4.67;3.73;;;;;;;;;;5003722;28;20269;-54
2023/04/03 01:30:03;;;;;;;4.53;3.73;;;;;;;;;;5002082;28;20633;-54
2023/04/03 01:32:29;;;;;;;3.97;3.37;;;;;;;;;;5002130;28;20331;-54
2023/04/03 01:34:55;;;;;;;4.80;3.23;;;;;;;;;;5005485;28;20671;-54
2023/04/03 01:37:22;;;;;;;4.43;3.17;;;;;;;;;;4999657;28;20179;-54
2023/04/03 01:39:48;;;;;;;4.07;3.40;;;;;;;;;;5010538;28;20178;-54
2023/04/03 01:42:15;;;;;;;5.30;3.97;;;;;;;;;;5004583;28;20187;-54
2023/04/03 01:44:41;;;;;;;3.93;3.53;;;;;;;;;;5005930;28;20248;-54
2023/04/03 01:47:07;;;;;;;5.47;3.77;;;;;;;;;;5005152;28;20212;-54
2023/04/03 01:49:33;;;;;;;4.60;3.57;;;;;;;;;;5005775;28;20235;-55
2023/04/03 01:51:59;;;;;;;9.27;3.90;;;;;;;;;;5008940;28;20218;-54
2023/04/03 01:54:25;;;;;;;5.10;3.73;;;;;;;;;;5005692;28;20207;-54
2023/04/03 01:56:52;;;;;;;6.90;4.00;;;;;;;;;;4999433;28;20220;-52
2023/04/03 01:59:19;;;;;;;5.40;4.17;;;;;;;;;;5006246;28;20338;-54
2023/04/03 02:01:45;;;;;;;4.50;3.73;;;;;;;;;;5007159;28;20523;-54
2023/04/03 02:04:12;;;;;;;5.57;3.50;;;;;;;;;;5006172;28;21248;-54
2023/04/03 02:06:38;;;;;;;4.93;3.80;;;;;;;;;;5007637;28;20190;-54
2023/04/03 02:09:04;;;;;;;8.43;3.73;;;;;;;;;;5006542;28;20395;-54
2023/04/03 02:11:31;;;;;;;4.63;3.33;;;;;;;;;;5010989;28;20566;-54
2023/04/03 02:13:57;;;;;;;5.73;4.03;;;;;;;;;;5011685;28;20186;-55
2023/04/03 02:16:23;;;;;;;3.50;3.03;;;;;;;;;;5004825;28;20179;-54
2023/04/03 02:18:49;;;;;;;3.57;3.20;;;;;;;;;;5010022;28;20190;-54
2023/04/03 02:21:15;;;;;;;5.67;3.87;;;;;;;;;;5004165;28;20234;-55
2023/04/03 02:23:41;;;;;;;4.43;3.30;;;;;;;;;;5006562;28;20194;-54
2023/04/03 02:26:09;;;;;;;6.03;3.70;;;;;;;;;;5008857;28;20182;-54
2023/04/03 02:28:35;;;;;;;6.47;4.07;;;;;;;;;;5019956;28;20190;-54
2023/04/03 02:31:01;;;;;;;5.33;3.27;;;;;;;;;;5014191;28;20210;-54
2023/04/03 02:33:27;;;;;;;3.23;2.93;;;;;;;;;;5011025;28;20652;-54
2023/04/03 02:35:57;;;;;;;5.83;3.70;;;;;;;;;;5012244;28;20389;-55
2023/04/03 02:38:24;;;;;;;4.83;4.10;;;;;;;;;;5007929;28;20190;-54
2023/04/03 02:40:50;;;;;;;4.87;3.20;;;;;;;;;;5014814;28;20180;-54
2023/04/03 02:43:17;;;;;;;4.67;3.70;;;;;;;;;;5013015;28;20510;-55
2023/04/03 02:45:43;;;;;;;4.10;3.53;;;;;;;;;;5012536;28;20189;-55
2023/04/03 02:48:09;;;;;;;4.23;3.33;;;;;;;;;;5017001;28;20215;-54
2023/04/03 02:50:35;;;;;;;3.70;3.23;;;;;;;;;;5030264;28;20183;-54
2023/04/03 02:53:02;;;;;;;5.23;3.90;;;;;;;;;;5007603;28;20189;-54
2023/04/03 02:55:28;;;;;;;5.47;3.70;;;;;;;;;;5008119;28;20182;-54
2023/04/03 02:57:54;;;;;;;3.97;3.57;;;;;;;;;;5010287;28;20195;-54
2023/04/03 03:00:20;;;;;;;4.57;3.60;;;;;;;;;;5010537;28;20186;-54
2023/04/03 03:02:46;;;;;;;4.03;3.60;;;;;;;;;;5008974;28;20182;-54
2023/04/03 03:05:12;;;;;;;5.17;3.23;;;;;;;;;;5009075;28;20183;-54
2023/04/03 03:07:38;;;;;;;5.77;3.53;;;;;;;;;;5005449;28;20666;-54
2023/04/03 03:10:04;;;;;;;5.63;3.77;;;;;;;;;;5007642;28;20219;-55
2023/04/03 03:12:30;;;;;;;4.53;3.27;;;;;;;;;;5001064;28;20205;-54
2023/04/03 03:14:56;;;;;;;4.23;3.60;;;;;;;;;;5011190;28;20175;-54
2023/04/03 03:17:22;;;;;;;4.53;3.83;;;;;;;;;;5009089;28;20182;-54
2023/04/03 03:19:48;;;;;;;4.17;3.53;;;;;;;;;;5009152;28;20174;-55
2023/04/03 03:22:15;;;;;;;4.27;3.67;;;;;;;;;;5015104;28;20226;-54
2023/04/03 03:24:41;;;;;;;3.67;3.37;;;;;;;;;;5004651;28;20190;-54
2023/04/03 03:27:07;;;;;;;4.07;3.53;;;;;;;;;;5003302;28;20194;-54
2023/04/03 03:29:33;;;;;;;5.13;3.47;;;;;;;;;;4998925;28;20182;-56
2023/04/03 03:31:59;;;;;;;4.43;3.73;;;;;;;;;;5002499;28;20269;-55
2023/04/03 03:34:25;;;;;;;4.03;3.63;;;;;;;;;;4999237;28;20194;-54
2023/04/03 03:36:51;;;;;;;4.73;3.33;;;;;;;;;;5003384;28;20251;-53
2023/04/03 03:39:17;;;;;;;5.57;3.83;;;;;;;;;;4999408;28;20309;-53
2023/04/03 03:41:43;;;;;;;5.43;4.10;;;;;;;;;;4999676;28;20694;-54
2023/04/03 03:44:09;;;;;;;4.00;3.60;;;;;;;;;;5000110;28;20280;-54
2023/04/03 03:46:35;;;;;;;4.67;3.20;;;;;;;;;;5001671;28;20556;-54
2023/04/03 03:49:01;;;;;;;3.67;3.37;;;;;;;;;;4999985;28;20187;-54
2023/04/03 03:51:27;;;;;;;4.47;3.20;;;;;;;;;;4999509;28;20735;-54
2023/04/03 03:53:54;;;;;;;3.23;2.77;;;;;;;;;;5001514;28;20174;-54
2023/04/03 03:56:20;;;;;;;5.97;3.80;;;;;;;;;;5003843;28;20211;-54
2023/04/03 03:58:46;;;;;;;6.63;3.50;;;;;;;;;;5001342;28;20180;-54
2023/04/03 04:01:12;;;;;;;4.00;3.70;;;;;;;;;;5003255;28;20192;-54
2023/04/03 04:03:38;;;;;;;3.13;2.87;;;;;;;;;;4998880;28;20178;-54
2023/04/03 04:06:04;;;;;;;4.47;3.20;;;;;;;;;;4999909;28;20592;-54
2023/04/03 04:08:30;;;;;;;5.07;3.50;;;;;;;;;;4999068;28;20328;-54
2023/04/03 04:10:56;;;;;;;6.07;3.07;;;;;;;;;;5000001;28;20639;-54
2023/04/03 04:13:22;;;;;;;4.30;3.10;;;;;;;;;;5001836;28;20179;-54
2023/04/03 04:15:49;;;;;;;4.30;3.00;;;;;;;;;;5000746;28;20183;-54
2023/04/03 04:18:15;;;;;;;3.27;2.77;;;;;;;;;;4999558;28;20187;-54
2023/04/03 04:20:41;;;;;;;3.97;2.77;;;;;;;;;;5001163;28;20222;-55
2023/04/03 04:23:07;;;;;;;3.73;2.97;;;;;;;;;;5000084;28;20202;-54
2023/04/03 04:25:33;;;;;;;2.80;2.50;;;;;;;;;;4998366;28;20179;-54
2023/04/03 04:27:59;;;;;;;3.67;2.43;;;;;;;;;;5003899;28;20248;-54
2023/04/03 04:30:27;;;;;;;3.97;2.57;;;;;;;;;;5001294;28;20625;-54
2023/04/03 04:32:53;;;;;;;2.53;2.30;;;;;;;;;;5006000;28;20678;-54
2023/04/03 04:35:19;;;;;;;3.47;2.33;;;;;;;;;;5010150;28;20286;-54
2023/04/03 04:37:45;;;;;;;4.10;2.20;;;;;;;;;;5007002;28;20227;-54
2023/04/03 04:40:11;;;;;;;3.13;2.37;;;;;;;;;;5009263;28;20183;-54
2023/04/03 04:42:37;;;;;;;3.43;2.57;;;;;;;;;;5003225;28;20529;-54
2023/04/03 04:45:03;;;;;;;2.83;2.37;;;;;;;;;;5000953;28;20290;-54
2023/04/03 04:47:30;;;;;;;2.87;2.37;;;;;;;;;;5002627;28;20186;-54
2023/04/03 04:49:56;;;;;;;4.40;2.40;;;;;;;;;;5002550;28;20557;-54
2023/04/03 04:52:22;;;;;;;4.33;2.50;;;;;;;;;;5002487;28;20756;-54
2023/04/03 04:54:48;;;;;;;3.63;2.33;;;;;;;;;;4998901;28;20182;-54
2023/04/03 04:57:14;;;;;;;3.30;2.23;;;;;;;;;;4999897;28;20831;-54
2023/04/03 04:59:40;;;;;;;3.07;2.67;;;;;;;;;;4999910;28;20179;-54
2023/04/03 05:02:06;;;;;;;4.20;2.70;;;;;;;;;;4994694;28;20708;-54
2023/04/03 05:04:33;;;;;;;3.30;1.93;;;;;;;;;;4996389;28;20182;-59
2023/04/03 05:06:59;;;;;;;2.73;2.13;;;;;;;;;;4999288;28;20217;-55
2023/04/03 05:09:25;;;;;;;2.50;2.00;;;;;;;;;;5011975;28;20244;-54
2023/04/03 05:11:51;;;;;;;3.63;2.27;;;;;;;;;;5002964;28;20213;-55
2023/04/03 05:14:17;;;;;;;2.40;2.20;;;;;;;;;;4998333;28;20631;-54
2023/04/03 05:16:43;;;;;;;2.53;2.07;;;;;;;;;;5007107;28;20182;-54
2023/04/03 05:19:09;;;;;;;2.77;2.13;;;;;;;;;;4999579;28;20194;-54
2023/04/03 05:21:35;;;;;;;3.23;2.33;;;;;;;;;;5002398;28;20225;-54
2023/04/03 05:24:02;;;;;;;3.60;2.37;;;;;;;;;;5003410;28;20261;-54
2023/04/03 05:26:29;;;;;;;3.03;2.10;;;;;;;;;;5003652;28;20174;-54
2023/04/03 05:28:55;;;;;;;2.47;2.07;;;;;;;;;;4998155;28;20258;-54
2023/04/03 05:31:21;;;;;;;3.63;1.90;;;;;;;;;;5001986;28;20203;-54
2023/04/03 05:33:47;;;;;;;2.13;1.93;;;;;;;;;;5010253;28;20179;-55
2023/04/03 05:36:13;;;;;;;2.33;2.00;;;;;;;;;;5009181;28;20200;-55
2023/04/03 05:38:40;;;;;;;2.80;2.10;;;;;;;;;;5008363;28;20367;-54
2023/04/03 05:41:06;;;;;;;3.10;1.90;;;;;;;;;;4999836;28;20211;-54
2023/04/03 05:43:33;;;;;;;2.77;2.00;;;;;;;;;;4996924;28;20244;-54
2023/04/03 05:45:59;;;;;;;2.73;2.30;;;;;;;;;;5001418;28;20681;-54
2023/04/03 05:48:25;;;;;;;2.23;1.93;;;;;;;;;;4998661;28;20642;-54
2023/04/03 05:50:52;;;;;;;3.83;2.30;;;;;;;;;;4997446;28;20186;-54
2023/04/03 05:53:27;;;;;;;2.43;2.23;;;;;;;;;;4996478;28;20202;-54
2023/04/03 05:55:53;;;;;;;4.43;2.40;;;;;;;;;;4998405;28;20181;-54
2023/04/03 05:58:20;;;;;;;2.60;1.93;;;;;;;;;;4997371;28;20191;-54
2023/04/03 06:00:46;;;;;;;3.07;2.23;;;;;;;;;;5004946;28;20209;-54
2023/04/03 06:03:12;;;;;;;2.33;1.70;;;;;;;;;;4994406;28;20661;-55
2023/04/03 06:05:38;;;;;;;2.10;1.90;;;;;;;;;;4994712;28;20218;-54
2023/04/03 06:08:04;;;;;;;2.30;2.10;;;;;;;;;;5003460;28;20241;-55
2023/04/03 06:10:30;;;;;;;3.10;2.17;;;;;;;;;;4999307;28;20178;-54
2023/04/03 06:12:56;;;;;;;4.27;2.33;;;;;;;;;;4988741;28;20783;-54
2023/04/03 06:15:22;;;;;;;2.40;2.00;;;;;;;;;;4999713;28;20189;-54
2023/04/03 06:17:48;;;;;;;2.93;2.30;;;;;;;;;;4999171;28;20181;-55
2023/04/03 06:20:14;;;;;;;2.03;1.70;;;;;;;;;;4997700;28;20232;-55
2023/04/03 06:22:41;;;;;;;2.90;1.90;;;;;;;;;;4996449;28;20642;-55
2023/04/03 06:25:09;;;;;;;2.37;1.80;;;;;;;;;;4996065;28;20746;-55
2023/04/03 06:27:35;;;;;;;4.60;2.30;;;;;;;;;;4992643;28;20183;-55
2023/04/03 06:30:01;;;;;;;3.60;2.37;;;;;;;;;;4997352;28;20187;-55
2023/04/03 06:32:27;;;;;;;5.03;2.20;;;;;;;;;;5005040;28;20705;-55
2023/04/03 06:34:55;;;;;;;4.20;2.40;;;;;;;;;;5012640;28;21212;-55
2023/04/03 06:37:22;;;;;;;3.60;2.23;;;;;;;;;;5005881;28;20691;-55
2023/04/03 06:39:49;;;;;;;5.13;2.23;;;;;;;;;;4996747;28;20630;-55
2023/04/03 06:42:15;;;;;;;2.77;2.10;;;;;;;;;;4993528;28;20194;-56
2023/04/03 06:44:42;;;;;;;3.80;2.17;;;;;;;;;;4996390;28;20197;-55
2023/04/03 06:47:10;;;;;;;6.43;2.30;;;;;;;;;;5001160;28;20228;-55
2023/04/03 06:49:36;;;;;;;2.10;1.90;;;;;;;;;;5000628;28;20598;-60
2023/04/03 06:52:03;;;;;;;2.63;2.30;;;;;;;;;;5012791;28;20575;-55
2023/04/03 06:54:29;;;;;;;4.50;2.33;;;;;;;;;;4993962;28;20269;-55
2023/04/03 06:56:55;;;;;;;2.37;2.07;;;;;;;;;;4999876;28;20539;-55
2023/04/03 06:59:21;;;;;;;3.27;2.40;;;;;;;;;;4999997;28;20280;-55
2023/04/03 07:01:48;;;;;;;2.83;2.40;;;;;;;;;;5002582;28;20252;-55
2023/04/03 07:04:15;;;;;;;1.87;1.70;;;;;;;;;;5005254;28;20549;-55
2023/04/03 07:06:42;;;;;;;2.30;1.90;;;;;;;;;;5002703;28;20191;-55
2023/04/03 07:09:08;;;;;;;5.10;2.43;;;;;;;;;;4999596;28;20225;-54
2023/04/03 07:11:35;;;;;;;3.30;2.73;;;;;;;;;;4998764;28;20209;-54
2023/04/03 07:14:01;;;;;;;2.63;1.83;;;;;;;;;;5003430;28;20187;-54
2023/04/03 07:16:28;;;;;;;3.63;2.17;;;;;;;;;;5005627;28;20523;-54
2023/04/03 07:18:54;;;;;;;4.30;2.83;;;;;;;;;;5009192;28;20190;-54
2023/04/03 07:21:20;;;;;;;3.67;2.00;;;;;;;;;;5004291;28;20569;-54
2023/04/03 07:23:46;;;;;;;3.50;2.10;;;;;;;;;;5001989;28;20209;-54
2023/04/03 07:26:12;;;;;;;8.00;2.30;;;;;;;;;;4997868;28;20338;-54
2023/04/03 07:28:40;;;;;;;4.93;2.43;;;;;;;;;;5000763;28;20194;-54
2023/04/03 07:31:08;;;;;;;3.10;2.13;;;;;;;;;;5001079;28;20607;-54
2023/04/03 07:33:34;;;;;;;4.70;2.43;;;;;;;;;;5002442;28;20194;-54
2023/04/03 07:36:01;;;;;;;5.03;2.23;;;;;;;;;;5003375;28;20237;-54
2023/04/03 07:38:28;;;;;;;4.67;2.27;;;;;;;;;;5001368;28;20181;-54
2023/04/03 07:40:54;;;;;;;5.83;2.20;;;;;;;;;;4997377;28;20187;-54
2023/04/03 07:43:21;;;;;;;4.13;2.40;;;;;;;;;;4999048;28;20535;-54
2023/04/03 07:45:50;;;;;;;5.90;2.50;;;;;;;;;;4998485;28;20183;-54
2023/04/03 07:48:17;;;;;;;4.93;2.63;;;;;;;;;;5001343;28;20695;-54
2023/04/03 07:50:43;;;;;;;3.80;2.50;;;;;;;;;;5001218;28;20183;-54
2023/04/03 07:53:09;;;;;;;2.83;2.30;;;;;;;;;;4999013;28;20213;-54
2023/04/03 07:55:42;;;;;;;5.47;2.70;;;;;;;;;;4999006;28;20651;-54
2023/04/03 07:58:09;;;;;;;3.37;2.40;;;;;;;;;;5001146;28;20872;-54
2023/04/03 08:00:35;;;;;;;4.17;2.47;;;;;;;;;;4996390;28;20179;-55
2023/04/03 08:03:01;;;;;;;3.70;2.23;;;;;;;;;;4996182;28;20178;-55
2023/04/03 08:05:27;;;;;;;3.00;1.97;;;;;;;;;;4992528;28;20292;-54
2023/04/03 08:07:54;;;;;;;4.73;2.30;;;;;;;;;;4997986;28;20200;-54
2023/04/03 08:10:20;;;;;;;4.20;2.33;;;;;;;;;;4996165;28;20646;-55
2023/04/03 08:12:47;;;;;;;3.47;2.07;;;;;;;;;;4996821;28;20210;-55
2023/04/03 08:15:13;;;;;;;2.30;1.83;;;;;;;;;;4996202;28;20179;-55
2023/04/03 08:17:39;;;;;;;2.80;1.77;;;;;;;;;;4996529;28;20194;-54
2023/04/03 08:20:06;;;;;;;2.67;2.00;;;;;;;;;;4995862;28;20174;-55
2023/04/03 08:22:32;;;;;;;4.67;2.17;;;;;;;;;;4996985;28;20238;-54
2023/04/03 08:24:58;;;;;;;4.33;2.00;;;;;;;;;;4998312;28;20214;-55
2023/04/03 08:27:25;;;;;;;3.57;2.17;;;;;;;;;;4997815;28;20186;-54
2023/04/03 08:29:51;;;;;;;2.43;1.83;;;;;;;;;;4993452;28;20305;-55
2023/04/03 08:32:17;;;;;;;4.97;2.23;;;;;;;;;;4998747;28;20281;-55
2023/04/03 08:34:44;;;;;;;3.33;1.87;;;;;;;;;;5003279;28;20178;-55
2023/04/03 08:37:10;;;;;;;2.00;1.50;;;;;;;;;;4994594;28;20182;-55
2023/04/03 08:39:36;;;;;;;2.10;1.67;;;;;;;;;;4997580;28;20190;-55
2023/04/03 08:42:07;;;;;;;4.63;1.90;;;;;;;;;;4998881;28;20186;-55
2023/04/03 08:44:33;;;;;;;3.93;1.70;;;;;;;;;;5000186;28;20728;-55
2023/04/03 08:47:11;;;;;;;2.77;1.80;;;;;;;;;;5000151;28;20293;-55
2023/04/03 08:49:42;;;;;;;2.87;1.97;;;;;;;;;;4998254;28;20185;-55
2023/04/03 08:52:14;;;;;;;1.80;1.70;;;;;;;;;;5000353;28;20608;-55
2023/04/03 08:55:01;;;;;;;2.00;1.73;;;;;;;;;;4998246;28;20584;-55
2023/04/03 08:57:32;;;;;;;3.07;1.70;;;;;;;;;;4994131;28;20189;-55
2023/04/03 08:59:59;;;;;;;5.67;1.90;;;;;;;;;;4991902;28;21478;-55
2023/04/03 09:02:32;;;;;;;3.70;1.80;;;;;;;;;;4996308;28;20193;-55
2023/04/03 09:04:58;;;;;;;3.50;1.63;;;;;;;;;;5004025;28;20740;-55
2023/04/03 09:07:53;;;;;;;2.10;1.70;;;;;;;;;;4995870;28;20182;-55
2023/04/03 09:10:24;;;;;;;3.40;1.80;;;;;;;;;;5004792;28;20613;-56
2023/04/03 09:13:01;;;;;;;4.23;1.27;;;;;;;;;;4996069;28;20209;-56
2023/04/03 09:15:27;;;;;;;3.03;1.73;;;;;;;;;;4999256;28;20647;-56
2023/04/03 09:17:59;;;;;;;3.27;1.60;;;;;;;;;;4998089;28;20654;-56
2023/04/03 09:20:28;;;;;;;4.23;1.80;;;;;;;;;;5003435;28;20185;-57
2023/04/03 09:22:55;;;;;;;1.90;1.37;;;;;;;;;;4997837;28;20273;-56
2023/04/03 09:25:26;;;;;;;2.40;1.50;;;;;;;;;;4998402;28;20196;-56
2023/04/03 09:27:53;;;;;;;2.73;1.30;;;;;;;;;;5004534;28;20181;-57
2023/04/03 09:30:21;;;;;;;2.37;1.50;;;;;;;;;;5001269;28;20194;-58
2023/04/03 09:32:48;;;;;;;1.43;1.33;;;;;;;;;;4995240;28;20206;-56
2023/04/03 09:35:14;;;;;;;2.10;1.57;;;;;;;;;;4998867;28;20185;-54
2023/04/03 09:37:41;;;;;;;3.20;1.40;;;;;;;;;;5001216;28;20186;-57
2023/04/03 09:40:28;;;;;;;2.00;1.33;;;;;;;;;;4994549;28;20187;-56
2023/04/03 09:42:56;;;;;;;1.77;1.50;;;;;;;;;;4999031;28;20190;-56
2023/04/03 09:45:25;;;;;;;7.17;1.90;;;;;;;;;;4996474;28;20609;-55
2023/04/03 09:48:04;;;;;;;2.10;1.40;;;;;;;;;;4992246;28;20262;-55
2023/04/03 09:50:30;;;;;;;2.30;1.63;;;;;;;;;;4996563;28;20510;-57
2023/04/03 09:52:56;;;;;;;1.40;1.30;;;;;;;;;;4998130;28;20593;-56
2023/04/03 09:55:27;;;;;;;1.97;1.13;;;;;;;;;;4997649;28;20182;-55
2023/04/03 09:57:54;;;;;;;5.20;1.40;;;;;;;;;;4996315;28;20257;-56
2023/04/03 10:00:21;;;;;;;2.13;1.20;;;;;;;;;;4996341;28;21589;-55
2023/04/03 10:02:50;;;;;;;1.33;1.20;;;;;;;;;;4995511;28;20609;-56
2023/04/03 10:05:30;;;;;;;5.00;1.17;;;;;;;;;;4995367;28;20194;-56
2023/04/03 10:08:15;;;;;;;1.23;1.13;;;;;;;;;;5002622;28;20216;-56
2023/04/03 10:10:42;;;;;;;2.27;1.50;;;;;;;;;;4998061;28;20696;-55
2023/04/03 10:13:12;;;;;;;1.23;1.13;;;;;;;;;;5008634;28;20564;-55
2023/04/03 10:15:43;;;;;;;2.40;1.37;;;;;;;;;;5000346;28;20190;-55
2023/04/03 10:18:30;;;;;;;1.87;1.40;;;;;;;;;;5003323;28;20178;-55
2023/04/03 10:21:00;;;;;;;2.20;1.07;;;;;;;;;;4997027;28;20237;-56
2023/04/03 10:23:52;;;;;;;3.03;1.60;;;;;;;;;;5005064;28;20562;-56
2023/04/03 10:26:37;;;;;;;3.60;1.27;;;;;;;;;;4996137;28;20210;-57
2023/04/03 10:29:03;;;;;;;2.00;1.30;;;;;;;;;;5000693;28;20621;-56
2023/04/03 10:31:48;;;;;;;2.17;1.20;;;;;;;;;;4991822;28;20317;-57
2023/04/03 10:34:37;;;;;;;2.07;1.30;;;;;;;;;;5002681;28;20190;-54
2023/04/03 10:37:09;;;;;;;2.23;1.30;;;;;;;;;;4999618;28;20253;-56
2023/04/03 10:39:41;;;;;;;2.47;1.17;;;;;;;;;;5001994;28;20197;-57
2023/04/03 10:42:29;;;;;;;3.70;1.30;;;;;;;;;;5001204;28;20289;-56
2023/04/03 10:45:04;;;;;;;1.23;1.10;;;;;;;;;;4997504;28;20194;-57
2023/04/03 10:47:49;;;;;;;2.33;1.30;;;;;;;;;;5002564;28;20677;-57
2023/04/03 10:50:21;;;;;;;2.00;1.47;;;;;;;;;;4999619;28;20225;-57
2023/04/03 10:52:51;;;;;;;2.17;1.20;;;;;;;;;;5002278;28;20218;-56
2023/04/03 10:55:28;;;;;;;1.37;1.27;;;;;;;;;;5004769;28;20185;-60
2023/04/03 10:57:57;;;;;;;4.07;1.33;;;;;;;;;;5001007;28;20553;-56
2023/04/03 11:00:36;;;;;;;2.83;2.43;;;;;;;;;;5004686;28;20687;-57
2023/04/03 11:03:14;;;;;;;2.50;1.57;;;;;;;;;;4998046;28;21490;-57
2023/04/03 11:05:44;;;;;;;60.83;33.23;;;;;;;;;;5008017;28;20599;-57
2023/04/03 11:08:18;;;;;;;350.43;205.83;;;;;;;;;;5002035;28;20183;-57
2023/04/03 11:10:49;;;;;;;91.37;66.23;;;;;;;;;;4998951;28;20190;-57
2023/04/03 11:13:22;;;;;;;75.57;46.40;;;;;;;;;;5002352;28;20222;-56
2023/04/03 11:15:50;;;;;;;52.57;40.07;;;;;;;;;;5004582;28;20191;-56
2023/04/03 11:18:19;;;;;;;14.47;10.77;;;;;;;;;;4999815;28;20178;-55
2023/04/03 11:20:51;;;;;;;11.67;8.90;;;;;;;;;;5006477;28;20258;-57
2023/04/03 11:23:23;;;;;;;10.50;5.40;;;;;;;;;;5003027;28;20248;-56
2023/04/03 11:25:52;;;;;;;4.30;3.27;;;;;;;;;;5002809;28;20197;-57
2023/04/03 11:28:18;;;;;;;3.73;2.90;;;;;;;;;;4997120;28;20190;-57
2023/04/03 11:30:51;;;;;;;3.73;3.27;;;;;;;;;;5000238;28;20350;-57
2023/04/03 11:33:37;;;;;;;3.80;2.70;;;;;;;;;;5000134;28;20217;-57
2023/04/03 11:36:23;;;;;;;2.00;1.73;;;;;;;;;;5006492;28;20170;-57
2023/04/03 11:38:52;;;;;;;3.27;1.93;;;;;;;;;;5007266;28;20655;-57
2023/04/03 11:41:25;;;;;;;2.63;1.60;;;;;;;;;;5002495;28;20241;-55
2023/04/03 11:44:02;;;;;;;2.40;1.73;;;;;;;;;;4999176;28;20190;-56
2023/04/03 11:46:47;;;;;;;2.97;1.57;;;;;;;;;;5000625;28;20670;-56
2023/04/03 11:49:33;;;;;;;1.93;1.50;;;;;;;;;;5002880;28;20174;-57
2023/04/03 11:51:59;;;;;;;2.63;1.80;;;;;;;;;;4998785;28;20235;-56
2023/04/03 11:54:45;;;;;;;2.73;1.50;;;;;;;;;;4995637;28;20243;-57
2023/04/03 11:57:31;;;;;;;3.13;1.50;;;;;;;;;;4996730;28;20759;-56
2023/04/03 11:59:57;;;;;;;2.07;1.30;;;;;;;;;;4999322;28;20186;-55
2023/04/03 12:02:35;;;;;;;2.37;1.80;;;;;;;;;;4997264;28;20194;-56
2023/04/03 12:05:20;;;;;;;2.47;1.57;;;;;;;;;;5001300;28;20244;-56
2023/04/03 12:08:06;;;;;;;2.20;1.53;;;;;;;;;;5001224;28;20263;-55
2023/04/03 12:10:32;;;;;;;1.97;1.50;;;;;;;;;;4999912;28;20186;-55
2023/04/03 12:12:59;;;;;;;1.83;1.67;;;;;;;;;;4999491;28;20213;-55
2023/04/03 12:15:26;;;;;;;2.10;1.73;;;;;;;;;;4998889;28;20186;-56
2023/04/03 12:17:52;;;;;;;2.33;2.07;;;;;;;;;;5007296;28;20642;-56
2023/04/03 12:20:45;;;;;;;2.53;2.33;;;;;;;;;;5006559;28;20261;-55
2023/04/03 12:23:30;;;;;;;2.40;2.20;;;;;;;;;;5004031;28;20237;-55
2023/04/03 12:26:02;;;;;;;2.50;1.70;;;;;;;;;;5002000;28;20205;-55
2023/04/03 12:28:29;;;;;;;2.10;1.80;;;;;;;;;;5001045;28;20175;-53
2023/04/03 12:30:55;;;;;;;2.53;1.60;;;;;;;;;;5000095;28;20614;-52
2023/04/03 12:33:30;;;;;;;5.13;2.03;;;;;;;;;;4990062;28;20548;-53
2023/04/03 12:36:05;;;;;;;2.63;1.57;;;;;;;;;;4995039;28;20186;-53
2023/04/03 12:38:47;;;;;;;1.47;1.20;;;;;;;;;;4996669;28;20733;-53
2023/04/03 12:41:22;;;;;;;2.23;1.30;;;;;;;;;;4995930;28;20904;-53
2023/04/03 12:43:59;;;;;;;4.43;2.03;;;;;;;;;;4995111;28;20173;-53
2023/04/03 12:46:27;;;;;;;3.63;1.40;;;;;;;;;;4996871;28;21919;-53
2023/04/03 12:48:55;;;;;;;1.77;1.50;;;;;;;;;;4997821;28;20285;-52
2023/04/03 12:51:38;;;;;;;2.03;1.80;;;;;;;;;;4994065;28;20183;-52
2023/04/03 12:54:12;;;;;;;2.20;1.60;;;;;;;;;;4996890;28;20643;-53
2023/04/03 12:56:39;;;;;;;2.03;1.67;;;;;;;;;;4998031;28;20216;-53
2023/04/03 12:59:16;;;;;;;3.50;1.73;;;;;;;;;;4997536;28;20522;-52
2023/04/03 13:01:43;;;;;;;2.30;1.40;;;;;;;;;;4997232;28;20607;-53
2023/04/03 13:04:12;;;;;;;1.50;1.40;;;;;;;;;;4998862;28;20214;-53
2023/04/03 13:06:40;;;;;;;2.00;1.53;;;;;;;;;;4999323;28;20248;-53
2023/04/03 13:09:07;;;;;;;1.40;1.30;;;;;;;;;;4997864;28;20182;-53
2023/04/03 13:11:36;;;;;;;2.47;1.73;;;;;;;;;;4994741;28;20209;-53
2023/04/03 13:14:15;;;;;;;1.53;1.30;;;;;;;;;;5003311;28;20202;-53
2023/04/03 13:16:41;;;;;;;3.07;1.80;;;;;;;;;;4997414;28;20182;-53
2023/04/03 13:19:16;;;;;;;3.57;1.80;;;;;;;;;;4997286;28;21000;-53
2023/04/03 13:21:43;;;;;;;1.80;1.40;;;;;;;;;;5000812;28;20233;-53
2023/04/03 13:24:11;;;;;;;1.50;1.40;;;;;;;;;;4996639;28;20725;-52
2023/04/03 13:26:37;;;;;;;1.60;1.50;;;;;;;;;;4996704;28;20226;-53
2023/04/03 13:29:06;;;;;;;3.37;1.47;;;;;;;;;;5000693;28;20562;-53
2023/04/03 13:31:34;;;;;;;2.40;1.70;;;;;;;;;;4997114;28;20209;-53
2023/04/03 13:34:21;;;;;;;2.10;1.93;;;;;;;;;;4994453;28;20225;-52
2023/04/03 13:36:51;;;;;;;4.43;1.77;;;;;;;;;;4999557;28;20174;-52
2023/04/03 13:39:17;;;;;;;2.37;1.90;;;;;;;;;;4990840;28;20181;-52
2023/04/03 13:41:45;;;;;;;2.03;1.67;;;;;;;;;;4992749;28;20197;-52
2023/04/03 13:44:23;;;;;;;1.67;1.57;;;;;;;;;;5003519;28;20181;-52
2023/04/03 13:46:50;;;;;;;1.43;1.33;;;;;;;;;;5001407;28;20189;-53
2023/04/03 13:49:35;;;;;;;1.40;1.30;;;;;;;;;;5005175;28;20905;-53
2023/04/03 13:52:02;;;;;;;5.17;3.17;;;;;;;;;;5006265;28;20190;-53
2023/04/03 13:54:34;;;;;;;3.23;1.83;;;;;;;;;;4998968;28;20273;-53
2023/04/03 13:57:01;;;;;;;3.33;1.90;;;;;;;;;;5002524;28;20177;-53
2023/04/03 13:59:31;;;;;;;2.20;2.00;;;;;;;;;;5011763;28;20184;-53
2023/04/03 14:02:03;;;;;;;3.77;1.60;;;;;;;;;;5010732;28;20183;-53
2023/04/03 14:10:41;;;;;;;3.07;1.63;;;;;;;;;;5005779;28;20221;-52
2023/04/03 14:13:09;;;;;;;2.53;1.93;;;;;;;;;;5002975;28;20223;-52
2023/04/03 14:15:36;;;;;;;1.30;1.20;;;;;;;;;;4999909;28;20697;-53
2023/04/03 14:18:02;;;;;;;1.77;1.53;;;;;;;;;;5004920;28;20240;-53
2023/04/03 14:20:28;;;;;;;2.13;1.60;;;;;;;;;;5004835;28;20297;-53
2023/04/03 14:22:54;;;;;;;2.10;1.47;;;;;;;;;;5002183;28;20665;-53
2023/04/03 14:25:22;;;;;;;2.47;2.20;;;;;;;;;;4998973;28;20185;-53
2023/04/03 14:27:50;;;;;;;1.60;1.50;;;;;;;;;;5003231;28;20219;-53
2023/04/03 14:30:21;;;;;;;3.37;1.70;;;;;;;;;;4999875;28;20294;-53
2023/04/03 14:32:48;;;;;;;2.93;1.90;;;;;;;;;;5003693;28;20262;-52
2023/04/03 14:35:14;;;;;;;2.57;1.77;;;;;;;;;;4992053;28;20185;-53
2023/04/03 14:37:40;;;;;;;1.77;1.60;;;;;;;;;;4991642;28;20213;-53
2023/04/03 14:40:07;;;;;;;2.73;1.90;;;;;;;;;;4994307;28;20649;-53
2023/04/03 14:42:35;;;;;;;2.93;1.90;;;;;;;;;;5000466;28;20596;-53
2023/04/03 14:45:03;;;;;;;1.90;1.60;;;;;;;;;;4997615;28;20221;-53
2023/04/03 14:47:30;;;;;;;2.07;1.73;;;;;;;;;;4996188;28;20249;-52
2023/04/03 14:49:56;;;;;;;2.43;1.57;;;;;;;;;;4998650;28;20209;-52
2023/04/03 14:52:22;;;;;;;2.33;2.13;;;;;;;;;;4992514;28;20208;-53
2023/04/03 14:54:49;;;;;;;2.27;1.80;;;;;;;;;;4996094;28;20190;-52
2023/04/03 14:57:16;;;;;;;4.90;1.73;;;;;;;;;;4993997;28;20202;-53
2023/04/03 14:59:42;;;;;;;2.53;1.73;;;;;;;;;;4997458;28;20670;-53